sensor_id;sensor_type;location;lat;lon;timestamp;P1;durP1;ratioP1;P2;durP2;ratioP2
20324;SDS011;10320;49.482;11.256;2023-04-24T00:01:31;2.53;;;2.07;;
20324;SDS011;10320;49.482;11.256;2023-04-24T00:03:59;2.13;;;1.93;;
20324;SDS011;10320;49.482;11.256;2023-04-24T00:06:25;3.07;;;2.20;;
20324;SDS011;10320;49.482;11.256;2023-04-24T00:08:58;2.37;;;2.17;;
20324;SDS011;10320;49.482;11.256;2023-04-24T00:11:24;2.67;;;2.20;;
20324;SDS011;10320;49.482;11.256;2023-04-24T00:13:50;3.23;;;2.30;;
20324;SDS011;10320;49.482;11.256;2023-04-24T00:16:16;2.47;;;2.10;;
20324;SDS011;10320;49.482;11.256;2023-04-24T00:18:41;2.63;;;2.20;;
20324;SDS011;10320;49.482;11.256;2023-04-24T00:21:07;3.07;;;2.00;;
20324;SDS011;10320;49.482;11.256;2023-04-24T00:23:33;2.30;;;2.10;;
20324;SDS011;10320;49.482;11.256;2023-04-24T00:25:58;2.53;;;2.10;;
20324;SDS011;10320;49.482;11.256;2023-04-24T00:28:25;3.13;;;2.13;;
20324;SDS011;10320;49.482;11.256;2023-04-24T00:30:50;3.00;;;2.20;;
20324;SDS011;10320;49.482;11.256;2023-04-24T00:33:16;2.83;;;2.53;;
20324;SDS011;10320;49.482;11.256;2023-04-24T00:35:42;3.13;;;2.20;;
20324;SDS011;10320;49.482;11.256;2023-04-24T00:38:07;2.90;;;2.30;;
20324;SDS011;10320;49.482;11.256;2023-04-24T00:40:33;4.13;;;2.10;;
20324;SDS011;10320;49.482;11.256;2023-04-24T00:42:59;3.40;;;2.50;;
20324;SDS011;10320;49.482;11.256;2023-04-24T00:45:24;2.40;;;2.20;;
20324;SDS011;10320;49.482;11.256;2023-04-24T00:47:50;3.00;;;2.70;;
20324;SDS011;10320;49.482;11.256;2023-04-24T00:50:17;2.53;;;2.33;;
20324;SDS011;10320;49.482;11.256;2023-04-24T00:52:44;3.50;;;2.07;;
20324;SDS011;10320;49.482;11.256;2023-04-24T00:55:10;3.33;;;2.47;;
20324;SDS011;10320;49.482;11.256;2023-04-24T00:57:36;2.87;;;2.27;;
20324;SDS011;10320;49.482;11.256;2023-04-24T01:00:03;3.33;;;2.53;;
20324;SDS011;10320;49.482;11.256;2023-04-24T01:02:30;3.33;;;2.33;;
20324;SDS011;10320;49.482;11.256;2023-04-24T01:04:59;3.00;;;2.40;;
20324;SDS011;10320;49.482;11.256;2023-04-24T01:07:26;3.87;;;2.40;;
20324;SDS011;10320;49.482;11.256;2023-04-24T01:09:52;2.73;;;2.20;;
20324;SDS011;10320;49.482;11.256;2023-04-24T01:12:19;2.40;;;2.20;;
20324;SDS011;10320;49.482;11.256;2023-04-24T01:14:44;2.93;;;2.40;;
20324;SDS011;10320;49.482;11.256;2023-04-24T01:17:11;3.13;;;2.70;;
20324;SDS011;10320;49.482;11.256;2023-04-24T01:19:37;3.77;;;2.70;;
20324;SDS011;10320;49.482;11.256;2023-04-24T01:22:03;2.37;;;2.17;;
20324;SDS011;10320;49.482;11.256;2023-04-24T01:24:35;2.90;;;2.50;;
20324;SDS011;10320;49.482;11.256;2023-04-24T01:27:02;3.40;;;2.23;;
20324;SDS011;10320;49.482;11.256;2023-04-24T01:29:28;3.27;;;2.50;;
20324;SDS011;10320;49.482;11.256;2023-04-24T01:31:54;3.97;;;2.20;;
20324;SDS011;10320;49.482;11.256;2023-04-24T01:34:20;2.70;;;2.23;;
20324;SDS011;10320;49.482;11.256;2023-04-24T01:36:46;3.27;;;2.40;;
20324;SDS011;10320;49.482;11.256;2023-04-24T01:39:13;3.63;;;2.60;;
20324;SDS011;10320;49.482;11.256;2023-04-24T01:41:40;2.80;;;2.43;;
20324;SDS011;10320;49.482;11.256;2023-04-24T01:44:05;2.57;;;2.27;;
20324;SDS011;10320;49.482;11.256;2023-04-24T01:46:31;2.30;;;2.10;;
20324;SDS011;10320;49.482;11.256;2023-04-24T01:48:59;2.67;;;2.10;;
20324;SDS011;10320;49.482;11.256;2023-04-24T01:51:25;2.60;;;2.40;;
20324;SDS011;10320;49.482;11.256;2023-04-24T01:53:51;3.40;;;2.40;;
20324;SDS011;10320;49.482;11.256;2023-04-24T01:56:19;2.60;;;2.40;;
20324;SDS011;10320;49.482;11.256;2023-04-24T01:58:45;2.47;;;2.27;;
20324;SDS011;10320;49.482;11.256;2023-04-24T02:01:15;3.60;;;2.57;;
20324;SDS011;10320;49.482;11.256;2023-04-24T02:03:43;3.50;;;2.50;;
20324;SDS011;10320;49.482;11.256;2023-04-24T02:06:09;3.07;;;2.77;;
20324;SDS011;10320;49.482;11.256;2023-04-24T02:08:35;4.83;;;2.50;;
20324;SDS011;10320;49.482;11.256;2023-04-24T02:11:00;2.47;;;2.27;;
20324;SDS011;10320;49.482;11.256;2023-04-24T02:13:27;2.80;;;2.23;;
20324;SDS011;10320;49.482;11.256;2023-04-24T02:15:53;2.70;;;2.20;;
20324;SDS011;10320;49.482;11.256;2023-04-24T02:18:19;2.97;;;2.20;;
20324;SDS011;10320;49.482;11.256;2023-04-24T02:20:45;3.60;;;2.10;;
20324;SDS011;10320;49.482;11.256;2023-04-24T02:23:10;2.83;;;2.20;;
20324;SDS011;10320;49.482;11.256;2023-04-24T02:25:36;2.60;;;2.07;;
20324;SDS011;10320;49.482;11.256;2023-04-24T02:28:02;2.93;;;2.10;;
20324;SDS011;10320;49.482;11.256;2023-04-24T02:30:28;2.57;;;2.17;;
20324;SDS011;10320;49.482;11.256;2023-04-24T02:32:53;2.33;;;2.13;;
20324;SDS011;10320;49.482;11.256;2023-04-24T02:35:20;2.03;;;1.83;;
20324;SDS011;10320;49.482;11.256;2023-04-24T02:37:45;2.20;;;1.90;;
20324;SDS011;10320;49.482;11.256;2023-04-24T02:40:11;2.50;;;1.93;;
20324;SDS011;10320;49.482;11.256;2023-04-24T02:42:37;2.33;;;2.13;;
20324;SDS011;10320;49.482;11.256;2023-04-24T02:45:03;2.27;;;2.07;;
20324;SDS011;10320;49.482;11.256;2023-04-24T02:47:30;2.20;;;2.00;;
20324;SDS011;10320;49.482;11.256;2023-04-24T02:49:55;2.63;;;2.13;;
20324;SDS011;10320;49.482;11.256;2023-04-24T02:52:21;2.70;;;2.20;;
20324;SDS011;10320;49.482;11.256;2023-04-24T02:54:47;2.00;;;1.90;;
20324;SDS011;10320;49.482;11.256;2023-04-24T02:57:12;2.30;;;2.10;;
20324;SDS011;10320;49.482;11.256;2023-04-24T02:59:38;4.80;;;2.50;;
20324;SDS011;10320;49.482;11.256;2023-04-24T03:02:04;2.90;;;2.23;;
20324;SDS011;10320;49.482;11.256;2023-04-24T03:04:30;3.33;;;2.30;;
20324;SDS011;10320;49.482;11.256;2023-04-24T03:06:56;3.13;;;2.53;;
20324;SDS011;10320;49.482;11.256;2023-04-24T03:09:22;3.10;;;2.60;;
20324;SDS011;10320;49.482;11.256;2023-04-24T03:11:48;3.07;;;2.40;;
20324;SDS011;10320;49.482;11.256;2023-04-24T03:14:14;3.43;;;2.30;;
20324;SDS011;10320;49.482;11.256;2023-04-24T03:16:40;4.00;;;2.27;;
20324;SDS011;10320;49.482;11.256;2023-04-24T03:19:06;3.60;;;2.50;;
20324;SDS011;10320;49.482;11.256;2023-04-24T03:21:31;2.30;;;2.10;;
20324;SDS011;10320;49.482;11.256;2023-04-24T03:23:57;3.03;;;2.40;;
20324;SDS011;10320;49.482;11.256;2023-04-24T03:26:23;3.00;;;2.20;;
20324;SDS011;10320;49.482;11.256;2023-04-24T03:28:49;3.17;;;2.50;;
20324;SDS011;10320;49.482;11.256;2023-04-24T03:31:15;2.53;;;2.33;;
20324;SDS011;10320;49.482;11.256;2023-04-24T03:33:41;3.13;;;2.40;;
20324;SDS011;10320;49.482;11.256;2023-04-24T03:36:07;3.17;;;2.40;;
20324;SDS011;10320;49.482;11.256;2023-04-24T03:38:33;2.77;;;2.30;;
20324;SDS011;10320;49.482;11.256;2023-04-24T03:40:58;3.43;;;2.63;;
20324;SDS011;10320;49.482;11.256;2023-04-24T03:43:24;3.80;;;2.30;;
20324;SDS011;10320;49.482;11.256;2023-04-24T03:45:52;2.50;;;1.97;;
20324;SDS011;10320;49.482;11.256;2023-04-24T03:48:17;2.30;;;2.10;;
20324;SDS011;10320;49.482;11.256;2023-04-24T03:50:43;3.20;;;2.20;;
20324;SDS011;10320;49.482;11.256;2023-04-24T03:53:09;3.33;;;2.30;;
20324;SDS011;10320;49.482;11.256;2023-04-24T03:55:35;2.60;;;2.20;;
20324;SDS011;10320;49.482;11.256;2023-04-24T03:58:00;3.80;;;2.30;;
20324;SDS011;10320;49.482;11.256;2023-04-24T04:00:26;3.00;;;2.40;;
20324;SDS011;10320;49.482;11.256;2023-04-24T04:02:52;2.60;;;2.40;;
20324;SDS011;10320;49.482;11.256;2023-04-24T04:05:18;2.40;;;2.20;;
20324;SDS011;10320;49.482;11.256;2023-04-24T04:07:44;2.37;;;2.00;;
20324;SDS011;10320;49.482;11.256;2023-04-24T04:10:10;2.50;;;2.27;;
20324;SDS011;10320;49.482;11.256;2023-04-24T04:12:35;3.10;;;2.40;;
20324;SDS011;10320;49.482;11.256;2023-04-24T04:15:02;2.97;;;2.30;;
20324;SDS011;10320;49.482;11.256;2023-04-24T04:17:28;3.00;;;2.40;;
20324;SDS011;10320;49.482;11.256;2023-04-24T04:19:54;2.63;;;2.40;;
20324;SDS011;10320;49.482;11.256;2023-04-24T04:22:21;2.57;;;2.37;;
20324;SDS011;10320;49.482;11.256;2023-04-24T04:24:47;3.47;;;2.40;;
20324;SDS011;10320;49.482;11.256;2023-04-24T04:27:13;2.60;;;2.40;;
20324;SDS011;10320;49.482;11.256;2023-04-24T04:29:41;2.90;;;2.70;;
20324;SDS011;10320;49.482;11.256;2023-04-24T04:32:07;2.73;;;2.50;;
20324;SDS011;10320;49.482;11.256;2023-04-24T04:34:33;2.77;;;2.50;;
20324;SDS011;10320;49.482;11.256;2023-04-24T04:36:58;2.77;;;2.47;;
20324;SDS011;10320;49.482;11.256;2023-04-24T04:39:26;3.60;;;2.43;;
20324;SDS011;10320;49.482;11.256;2023-04-24T04:41:53;4.10;;;2.47;;
20324;SDS011;10320;49.482;11.256;2023-04-24T04:44:19;5.17;;;2.33;;
20324;SDS011;10320;49.482;11.256;2023-04-24T04:46:44;3.07;;;2.50;;
20324;SDS011;10320;49.482;11.256;2023-04-24T04:49:10;3.77;;;2.37;;
20324;SDS011;10320;49.482;11.256;2023-04-24T04:51:36;3.93;;;2.73;;
20324;SDS011;10320;49.482;11.256;2023-04-24T04:54:02;2.90;;;2.47;;
20324;SDS011;10320;49.482;11.256;2023-04-24T04:56:28;4.83;;;2.70;;
20324;SDS011;10320;49.482;11.256;2023-04-24T04:58:54;2.97;;;2.70;;
20324;SDS011;10320;49.482;11.256;2023-04-24T05:01:20;3.87;;;2.50;;
20324;SDS011;10320;49.482;11.256;2023-04-24T05:03:48;3.53;;;2.70;;
20324;SDS011;10320;49.482;11.256;2023-04-24T05:06:14;3.03;;;2.80;;
20324;SDS011;10320;49.482;11.256;2023-04-24T05:08:40;4.77;;;3.10;;
20324;SDS011;10320;49.482;11.256;2023-04-24T05:11:05;2.70;;;2.50;;
20324;SDS011;10320;49.482;11.256;2023-04-24T05:13:31;5.40;;;2.83;;
20324;SDS011;10320;49.482;11.256;2023-04-24T05:15:57;3.00;;;2.70;;
20324;SDS011;10320;49.482;11.256;2023-04-24T05:18:22;3.20;;;2.90;;
20324;SDS011;10320;49.482;11.256;2023-04-24T05:20:48;3.27;;;2.50;;
20324;SDS011;10320;49.482;11.256;2023-04-24T05:23:14;3.37;;;2.90;;
20324;SDS011;10320;49.482;11.256;2023-04-24T05:25:39;3.33;;;2.80;;
20324;SDS011;10320;49.482;11.256;2023-04-24T05:28:06;3.03;;;2.73;;
20324;SDS011;10320;49.482;11.256;2023-04-24T05:30:32;3.90;;;2.60;;
20324;SDS011;10320;49.482;11.256;2023-04-24T05:32:57;3.13;;;2.83;;
20324;SDS011;10320;49.482;11.256;2023-04-24T05:35:23;4.13;;;2.60;;
20324;SDS011;10320;49.482;11.256;2023-04-24T05:37:49;4.23;;;2.60;;
20324;SDS011;10320;49.482;11.256;2023-04-24T05:40:14;4.17;;;2.80;;
20324;SDS011;10320;49.482;11.256;2023-04-24T05:42:40;3.67;;;3.30;;
20324;SDS011;10320;49.482;11.256;2023-04-24T05:45:06;4.17;;;3.00;;
20324;SDS011;10320;49.482;11.256;2023-04-24T05:47:32;4.20;;;2.43;;
20324;SDS011;10320;49.482;11.256;2023-04-24T05:49:58;4.33;;;3.00;;
20324;SDS011;10320;49.482;11.256;2023-04-24T05:52:24;3.50;;;2.97;;
20324;SDS011;10320;49.482;11.256;2023-04-24T05:54:49;3.20;;;2.87;;
20324;SDS011;10320;49.482;11.256;2023-04-24T05:57:15;3.00;;;2.70;;
20324;SDS011;10320;49.482;11.256;2023-04-24T05:59:41;4.00;;;2.63;;
20324;SDS011;10320;49.482;11.256;2023-04-24T06:02:07;4.00;;;2.90;;
20324;SDS011;10320;49.482;11.256;2023-04-24T06:04:32;7.20;;;3.60;;
20324;SDS011;10320;49.482;11.256;2023-04-24T06:06:58;2.67;;;2.47;;
20324;SDS011;10320;49.482;11.256;2023-04-24T06:09:25;2.40;;;2.17;;
20324;SDS011;10320;49.482;11.256;2023-04-24T06:11:51;3.30;;;2.47;;
20324;SDS011;10320;49.482;11.256;2023-04-24T06:14:21;2.40;;;2.20;;
20324;SDS011;10320;49.482;11.256;2023-04-24T06:16:47;2.67;;;2.47;;
20324;SDS011;10320;49.482;11.256;2023-04-24T06:19:13;3.27;;;2.20;;
20324;SDS011;10320;49.482;11.256;2023-04-24T06:21:38;2.43;;;2.20;;
20324;SDS011;10320;49.482;11.256;2023-04-24T06:24:04;3.03;;;2.20;;
20324;SDS011;10320;49.482;11.256;2023-04-24T06:26:30;2.87;;;2.17;;
20324;SDS011;10320;49.482;11.256;2023-04-24T06:28:55;2.23;;;1.90;;
20324;SDS011;10320;49.482;11.256;2023-04-24T06:31:24;3.63;;;2.10;;
20324;SDS011;10320;49.482;11.256;2023-04-24T06:33:49;2.97;;;2.17;;
20324;SDS011;10320;49.482;11.256;2023-04-24T06:36:15;2.60;;;2.20;;
20324;SDS011;10320;49.482;11.256;2023-04-24T06:38:42;3.40;;;2.27;;
20324;SDS011;10320;49.482;11.256;2023-04-24T06:41:07;2.00;;;1.90;;
20324;SDS011;10320;49.482;11.256;2023-04-24T06:43:33;2.83;;;2.13;;
20324;SDS011;10320;49.482;11.256;2023-04-24T06:45:59;2.40;;;1.90;;
20324;SDS011;10320;49.482;11.256;2023-04-24T06:48:25;2.37;;;1.90;;
20324;SDS011;10320;49.482;11.256;2023-04-24T06:50:51;2.23;;;1.50;;
20324;SDS011;10320;49.482;11.256;2023-04-24T06:53:17;2.00;;;1.80;;
20324;SDS011;10320;49.482;11.256;2023-04-24T06:55:43;4.13;;;2.20;;
20324;SDS011;10320;49.482;11.256;2023-04-24T06:58:12;2.00;;;1.47;;
20324;SDS011;10320;49.482;11.256;2023-04-24T07:00:38;2.10;;;1.60;;
20324;SDS011;10320;49.482;11.256;2023-04-24T07:03:03;2.00;;;1.80;;
20324;SDS011;10320;49.482;11.256;2023-04-24T07:05:32;1.83;;;1.70;;
20324;SDS011;10320;49.482;11.256;2023-04-24T07:08:00;1.80;;;1.53;;
20324;SDS011;10320;49.482;11.256;2023-04-24T07:10:26;2.43;;;1.73;;
20324;SDS011;10320;49.482;11.256;2023-04-24T07:12:54;1.93;;;1.70;;
20324;SDS011;10320;49.482;11.256;2023-04-24T07:15:21;2.43;;;1.70;;
20324;SDS011;10320;49.482;11.256;2023-04-24T07:17:47;2.07;;;1.70;;
20324;SDS011;10320;49.482;11.256;2023-04-24T07:20:13;2.70;;;1.60;;
20324;SDS011;10320;49.482;11.256;2023-04-24T07:22:39;1.63;;;1.43;;
20324;SDS011;10320;49.482;11.256;2023-04-24T07:25:05;2.00;;;1.57;;
20324;SDS011;10320;49.482;11.256;2023-04-24T07:27:32;1.60;;;1.50;;
20324;SDS011;10320;49.482;11.256;2023-04-24T07:29:59;2.90;;;1.60;;
20324;SDS011;10320;49.482;11.256;2023-04-24T07:32:24;2.43;;;1.33;;
20324;SDS011;10320;49.482;11.256;2023-04-24T07:34:50;2.43;;;1.60;;
20324;SDS011;10320;49.482;11.256;2023-04-24T07:37:15;2.17;;;1.60;;
20324;SDS011;10320;49.482;11.256;2023-04-24T07:39:41;1.83;;;1.50;;
20324;SDS011;10320;49.482;11.256;2023-04-24T07:42:07;1.53;;;1.40;;
20324;SDS011;10320;49.482;11.256;2023-04-24T07:44:33;1.63;;;1.53;;
20324;SDS011;10320;49.482;11.256;2023-04-24T07:46:58;1.37;;;1.20;;
20324;SDS011;10320;49.482;11.256;2023-04-24T07:49:24;2.17;;;1.80;;
20324;SDS011;10320;49.482;11.256;2023-04-24T07:51:50;1.97;;;1.73;;
20324;SDS011;10320;49.482;11.256;2023-04-24T07:54:16;1.60;;;1.50;;
20324;SDS011;10320;49.482;11.256;2023-04-24T07:56:43;1.60;;;1.50;;
20324;SDS011;10320;49.482;11.256;2023-04-24T07:59:09;1.83;;;1.67;;
20324;SDS011;10320;49.482;11.256;2023-04-24T08:01:35;1.60;;;1.50;;
20324;SDS011;10320;49.482;11.256;2023-04-24T08:04:01;2.60;;;1.80;;
20324;SDS011;10320;49.482;11.256;2023-04-24T08:06:27;2.30;;;1.90;;
20324;SDS011;10320;49.482;11.256;2023-04-24T08:08:58;1.90;;;1.70;;
20324;SDS011;10320;49.482;11.256;2023-04-24T08:11:25;1.80;;;1.70;;
20324;SDS011;10320;49.482;11.256;2023-04-24T08:13:51;2.40;;;1.77;;
20324;SDS011;10320;49.482;11.256;2023-04-24T08:16:16;2.13;;;1.80;;
20324;SDS011;10320;49.482;11.256;2023-04-24T08:18:42;3.10;;;2.20;;
20324;SDS011;10320;49.482;11.256;2023-04-24T08:21:08;2.03;;;1.70;;
20324;SDS011;10320;49.482;11.256;2023-04-24T08:23:33;3.40;;;2.03;;
20324;SDS011;10320;49.482;11.256;2023-04-24T08:25:59;2.40;;;2.10;;
20324;SDS011;10320;49.482;11.256;2023-04-24T08:28:25;2.93;;;2.00;;
20324;SDS011;10320;49.482;11.256;2023-04-24T08:30:50;1.80;;;1.70;;
20324;SDS011;10320;49.482;11.256;2023-04-24T08:33:19;2.60;;;2.17;;
20324;SDS011;10320;49.482;11.256;2023-04-24T08:35:46;3.67;;;2.03;;
20324;SDS011;10320;49.482;11.256;2023-04-24T08:38:12;2.27;;;2.07;;
20324;SDS011;10320;49.482;11.256;2023-04-24T08:40:37;2.80;;;1.90;;
20324;SDS011;10320;49.482;11.256;2023-04-24T08:43:04;2.93;;;1.80;;
20324;SDS011;10320;49.482;11.256;2023-04-24T08:45:30;1.93;;;1.63;;
20324;SDS011;10320;49.482;11.256;2023-04-24T08:47:57;1.70;;;1.60;;
20324;SDS011;10320;49.482;11.256;2023-04-24T08:50:23;2.13;;;1.97;;
20324;SDS011;10320;49.482;11.256;2023-04-24T08:52:50;3.47;;;2.30;;
20324;SDS011;10320;49.482;11.256;2023-04-24T08:55:18;2.67;;;2.00;;
20324;SDS011;10320;49.482;11.256;2023-04-24T08:57:45;2.50;;;2.30;;
20324;SDS011;10320;49.482;11.256;2023-04-24T09:00:16;3.13;;;2.37;;
20324;SDS011;10320;49.482;11.256;2023-04-24T09:02:43;2.50;;;2.30;;
20324;SDS011;10320;49.482;11.256;2023-04-24T09:05:10;3.10;;;2.60;;
20324;SDS011;10320;49.482;11.256;2023-04-24T09:07:37;2.63;;;2.10;;
20324;SDS011;10320;49.482;11.256;2023-04-24T09:10:06;2.53;;;2.33;;
20324;SDS011;10320;49.482;11.256;2023-04-24T09:12:34;2.70;;;2.50;;
20324;SDS011;10320;49.482;11.256;2023-04-24T09:15:00;3.27;;;2.30;;
20324;SDS011;10320;49.482;11.256;2023-04-24T09:17:28;2.03;;;1.93;;
20324;SDS011;10320;49.482;11.256;2023-04-24T09:19:55;2.50;;;2.30;;
20324;SDS011;10320;49.482;11.256;2023-04-24T09:22:21;3.70;;;2.20;;
20324;SDS011;10320;49.482;11.256;2023-04-24T09:24:47;2.67;;;2.23;;
20324;SDS011;10320;49.482;11.256;2023-04-24T09:27:13;3.23;;;2.40;;
20324;SDS011;10320;49.482;11.256;2023-04-24T09:30:03;2.70;;;2.50;;
20324;SDS011;10320;49.482;11.256;2023-04-24T09:32:28;2.43;;;2.00;;
20324;SDS011;10320;49.482;11.256;2023-04-24T09:37:36;3.23;;;2.50;;
20324;SDS011;10320;49.482;11.256;2023-04-24T09:42:38;3.67;;;2.30;;
20324;SDS011;10320;49.482;11.256;2023-04-24T09:45:07;3.67;;;1.97;;
20324;SDS011;10320;49.482;11.256;2023-04-24T09:47:38;2.63;;;2.43;;
20324;SDS011;10320;49.482;11.256;2023-04-24T09:50:14;2.83;;;2.23;;
20324;SDS011;10320;49.482;11.256;2023-04-24T09:52:45;3.17;;;2.30;;
20324;SDS011;10320;49.482;11.256;2023-04-24T09:55:14;2.30;;;2.10;;
20324;SDS011;10320;49.482;11.256;2023-04-24T09:57:57;2.53;;;2.33;;
20324;SDS011;10320;49.482;11.256;2023-04-24T10:00:30;2.43;;;2.23;;
20324;SDS011;10320;49.482;11.256;2023-04-24T10:05:33;2.50;;;2.30;;
20324;SDS011;10320;49.482;11.256;2023-04-24T10:08:10;3.57;;;2.10;;
20324;SDS011;10320;49.482;11.256;2023-04-24T10:10:40;3.40;;;2.20;;
20324;SDS011;10320;49.482;11.256;2023-04-24T10:13:07;1.80;;;1.70;;
20324;SDS011;10320;49.482;11.256;2023-04-24T10:15:35;2.40;;;1.27;;
20324;SDS011;10320;49.482;11.256;2023-04-24T10:18:01;2.53;;;1.40;;
20324;SDS011;10320;49.482;11.256;2023-04-24T10:20:29;1.73;;;1.60;;
20324;SDS011;10320;49.482;11.256;2023-04-24T10:22:56;1.77;;;1.67;;
20324;SDS011;10320;49.482;11.256;2023-04-24T10:25:27;1.83;;;1.60;;
20324;SDS011;10320;49.482;11.256;2023-04-24T10:27:57;1.60;;;1.50;;
20324;SDS011;10320;49.482;11.256;2023-04-24T10:30:25;1.60;;;1.50;;
20324;SDS011;10320;49.482;11.256;2023-04-24T10:32:55;1.57;;;1.47;;
20324;SDS011;10320;49.482;11.256;2023-04-24T10:35:21;1.50;;;1.40;;
20324;SDS011;10320;49.482;11.256;2023-04-24T10:37:51;1.50;;;1.40;;
20324;SDS011;10320;49.482;11.256;2023-04-24T10:40:32;3.33;;;1.50;;
20324;SDS011;10320;49.482;11.256;2023-04-24T10:42:59;1.87;;;1.20;;
20324;SDS011;10320;49.482;11.256;2023-04-24T10:45:32;1.73;;;1.13;;
20324;SDS011;10320;49.482;11.256;2023-04-24T10:50:34;2.10;;;1.27;;
20324;SDS011;10320;49.482;11.256;2023-04-24T10:53:20;1.70;;;1.40;;
20324;SDS011;10320;49.482;11.256;2023-04-24T10:55:52;1.27;;;1.17;;
20324;SDS011;10320;49.482;11.256;2023-04-24T10:58:22;2.10;;;1.23;;
20324;SDS011;10320;49.482;11.256;2023-04-24T11:00:56;1.07;;;1.07;;
20324;SDS011;10320;49.482;11.256;2023-04-24T11:03:29;1.43;;;1.10;;
20324;SDS011;10320;49.482;11.256;2023-04-24T11:13:23;1.93;;;1.53;;
20324;SDS011;10320;49.482;11.256;2023-04-24T11:16:11;1.30;;;1.20;;
20324;SDS011;10320;49.482;11.256;2023-04-24T11:18:38;2.07;;;1.30;;
20324;SDS011;10320;49.482;11.256;2023-04-24T11:21:17;1.10;;;1.00;;
20324;SDS011;10320;49.482;11.256;2023-04-24T11:23:44;3.00;;;1.40;;
20324;SDS011;10320;49.482;11.256;2023-04-24T11:26:11;2.30;;;1.30;;
20324;SDS011;10320;49.482;11.256;2023-04-24T11:28:43;1.23;;;1.13;;
20324;SDS011;10320;49.482;11.256;2023-04-24T11:33:54;1.20;;;1.10;;
20324;SDS011;10320;49.482;11.256;2023-04-24T11:36:20;1.30;;;1.20;;
20324;SDS011;10320;49.482;11.256;2023-04-24T11:38:46;1.87;;;1.30;;
20324;SDS011;10320;49.482;11.256;2023-04-24T11:41:12;1.63;;;1.53;;
20324;SDS011;10320;49.482;11.256;2023-04-24T11:43:38;2.07;;;1.27;;
20324;SDS011;10320;49.482;11.256;2023-04-24T11:46:05;1.90;;;1.60;;
20324;SDS011;10320;49.482;11.256;2023-04-24T11:48:34;2.63;;;1.40;;
20324;SDS011;10320;49.482;11.256;2023-04-24T11:51:01;1.60;;;1.50;;
20324;SDS011;10320;49.482;11.256;2023-04-24T11:53:27;1.60;;;1.50;;
20324;SDS011;10320;49.482;11.256;2023-04-24T11:55:53;1.53;;;1.43;;
20324;SDS011;10320;49.482;11.256;2023-04-24T11:58:20;1.67;;;1.57;;
20324;SDS011;10320;49.482;11.256;2023-04-24T12:00:53;1.90;;;1.80;;
20324;SDS011;10320;49.482;11.256;2023-04-24T12:03:22;1.80;;;1.70;;
20324;SDS011;10320;49.482;11.256;2023-04-24T12:05:48;1.97;;;1.87;;
20324;SDS011;10320;49.482;11.256;2023-04-24T12:08:29;1.80;;;1.70;;
20324;SDS011;10320;49.482;11.256;2023-04-24T12:10:56;3.77;;;2.00;;
20324;SDS011;10320;49.482;11.256;2023-04-24T12:13:25;2.20;;;2.00;;
20324;SDS011;10320;49.482;11.256;2023-04-24T12:15:51;2.00;;;1.80;;
20324;SDS011;10320;49.482;11.256;2023-04-24T12:18:17;2.00;;;1.80;;
20324;SDS011;10320;49.482;11.256;2023-04-24T12:20:43;1.60;;;1.50;;
20324;SDS011;10320;49.482;11.256;2023-04-24T12:23:09;2.63;;;1.50;;
20324;SDS011;10320;49.482;11.256;2023-04-24T12:25:35;3.00;;;1.53;;
20324;SDS011;10320;49.482;11.256;2023-04-24T12:30:31;1.80;;;1.70;;
20324;SDS011;10320;49.482;11.256;2023-04-24T12:32:58;2.20;;;1.63;;
20324;SDS011;10320;49.482;11.256;2023-04-24T12:35:26;2.27;;;1.80;;
20324;SDS011;10320;49.482;11.256;2023-04-24T12:37:52;2.00;;;1.63;;
20324;SDS011;10320;49.482;11.256;2023-04-24T12:40:19;1.77;;;1.67;;
20324;SDS011;10320;49.482;11.256;2023-04-24T12:42:48;4.07;;;2.00;;
20324;SDS011;10320;49.482;11.256;2023-04-24T12:45:15;2.03;;;1.60;;
20324;SDS011;10320;49.482;11.256;2023-04-24T12:47:41;2.27;;;1.60;;
20324;SDS011;10320;49.482;11.256;2023-04-24T12:50:08;1.90;;;1.80;;
20324;SDS011;10320;49.482;11.256;2023-04-24T12:52:34;3.33;;;1.80;;
20324;SDS011;10320;49.482;11.256;2023-04-24T12:55:00;2.30;;;2.10;;
20324;SDS011;10320;49.482;11.256;2023-04-24T12:57:28;2.03;;;1.93;;
20324;SDS011;10320;49.482;11.256;2023-04-24T12:59:55;1.70;;;1.60;;
20324;SDS011;10320;49.482;11.256;2023-04-24T13:02:21;1.83;;;1.67;;
20324;SDS011;10320;49.482;11.256;2023-04-24T13:04:48;1.90;;;1.60;;
20324;SDS011;10320;49.482;11.256;2023-04-24T13:07:14;2.33;;;1.90;;
20324;SDS011;10320;49.482;11.256;2023-04-24T13:09:40;2.37;;;1.47;;
20324;SDS011;10320;49.482;11.256;2023-04-24T13:12:07;1.40;;;1.30;;
20324;SDS011;10320;49.482;11.256;2023-04-24T13:14:33;1.60;;;1.50;;
20324;SDS011;10320;49.482;11.256;2023-04-24T13:16:59;1.67;;;1.40;;
20324;SDS011;10320;49.482;11.256;2023-04-24T13:19:26;1.40;;;1.30;;
20324;SDS011;10320;49.482;11.256;2023-04-24T13:21:54;1.27;;;1.13;;
20324;SDS011;10320;49.482;11.256;2023-04-24T13:24:21;1.40;;;1.30;;
20324;SDS011;10320;49.482;11.256;2023-04-24T13:26:51;2.10;;;1.50;;
20324;SDS011;10320;49.482;11.256;2023-04-24T13:29:17;1.53;;;1.40;;
20324;SDS011;10320;49.482;11.256;2023-04-24T13:31:43;2.70;;;1.40;;
20324;SDS011;10320;49.482;11.256;2023-04-24T13:34:09;1.53;;;1.43;;
20324;SDS011;10320;49.482;11.256;2023-04-24T13:36:35;1.40;;;1.30;;
20324;SDS011;10320;49.482;11.256;2023-04-24T13:39:02;2.20;;;1.87;;
20324;SDS011;10320;49.482;11.256;2023-04-24T13:41:32;2.20;;;1.70;;
20324;SDS011;10320;49.482;11.256;2023-04-24T13:43:58;1.73;;;1.60;;
20324;SDS011;10320;49.482;11.256;2023-04-24T13:46:24;1.97;;;1.77;;
20324;SDS011;10320;49.482;11.256;2023-04-24T13:48:50;1.87;;;1.77;;
20324;SDS011;10320;49.482;11.256;2023-04-24T13:51:16;2.00;;;1.83;;
20324;SDS011;10320;49.482;11.256;2023-04-24T13:53:42;2.17;;;1.90;;
20324;SDS011;10320;49.482;11.256;2023-04-24T13:56:08;2.13;;;1.90;;
20324;SDS011;10320;49.482;11.256;2023-04-24T13:58:35;2.37;;;1.80;;
20324;SDS011;10320;49.482;11.256;2023-04-24T14:01:04;2.50;;;1.63;;
20324;SDS011;10320;49.482;11.256;2023-04-24T14:03:30;2.77;;;2.40;;
20324;SDS011;10320;49.482;11.256;2023-04-24T14:05:56;3.03;;;2.20;;
20324;SDS011;10320;49.482;11.256;2023-04-24T14:08:22;2.10;;;1.83;;
20324;SDS011;10320;49.482;11.256;2023-04-24T14:10:49;2.17;;;2.07;;
20324;SDS011;10320;49.482;11.256;2023-04-24T14:13:15;1.80;;;1.70;;
20324;SDS011;10320;49.482;11.256;2023-04-24T14:15:41;1.70;;;1.60;;
20324;SDS011;10320;49.482;11.256;2023-04-24T14:18:07;2.53;;;1.40;;
20324;SDS011;10320;49.482;11.256;2023-04-24T14:20:33;2.73;;;2.10;;
20324;SDS011;10320;49.482;11.256;2023-04-24T14:23:00;2.07;;;1.87;;
20324;SDS011;10320;49.482;11.256;2023-04-24T14:25:26;2.60;;;2.23;;
20324;SDS011;10320;49.482;11.256;2023-04-24T14:27:52;2.50;;;2.13;;
20324;SDS011;10320;49.482;11.256;2023-04-24T14:30:18;2.10;;;2.00;;
20324;SDS011;10320;49.482;11.256;2023-04-24T14:32:44;2.23;;;2.00;;
20324;SDS011;10320;49.482;11.256;2023-04-24T14:35:11;2.10;;;1.90;;
20324;SDS011;10320;49.482;11.256;2023-04-24T14:37:37;2.67;;;2.47;;
20324;SDS011;10320;49.482;11.256;2023-04-24T14:40:06;3.03;;;2.17;;
20324;SDS011;10320;49.482;11.256;2023-04-24T14:42:33;2.90;;;2.00;;
20324;SDS011;10320;49.482;11.256;2023-04-24T14:44:59;2.53;;;2.33;;
20324;SDS011;10320;49.482;11.256;2023-04-24T14:47:25;2.30;;;2.00;;
20324;SDS011;10320;49.482;11.256;2023-04-24T14:49:51;2.80;;;2.60;;
20324;SDS011;10320;49.482;11.256;2023-04-24T14:52:17;2.20;;;2.00;;
20324;SDS011;10320;49.482;11.256;2023-04-24T14:54:44;2.77;;;2.40;;